| 8/24/2026 | California State Teachers Retirement System | 5,005 | $175K | 0.0% | N/A | 0.048% | |
| 8/6/2026 | Bank of New York Mellon Corp | 29,483 | $1.03M | 0.0% | N/A | 0.285% | |
| 5/18/2026 | Empowered Funds LLC | 88,160 | $2.33M | 0.0% | -19.3% | 0.806% | |
| 5/18/2026 | Engine Capital Management LP | 874,476 | $23.14M | 2.8% | -34.6% | 7.993% | |
| 5/16/2026 | Flat Footed LLC | 347,240 | $9.19M | 1.0% | -25.0% | 3.174% | |
| 5/15/2026 | OMERS ADMINISTRATION Corp | 8,200 | $217K | 0.0% | N/A | 0.075% | |
| 5/15/2026 | Punch & Associates Investment Management Inc. | 158,260 | $4.19M | 0.2% | -19.5% | 1.447% | |
| 5/14/2026 | Renaissance Technologies LLC | 501,732 | $13.28M | 0.0% | -4.3% | 4.586% | |
| 5/14/2026 | Arrowstreet Capital Limited Partnership | 126,478 | $3.35M | 0.0% | +12.0% | 1.156% | |
| 5/14/2026 | Sei Investments Co. | 71,487 | $1.89M | 0.0% | +104.2% | 0.653% | |
Get the Latest News and Ratings for CVEO and Related Stocks Enter your email address below to receive the latest news and analysts' ratings for Civeo and its competitors with MarketBeat's FREE daily newsletter.
|
| 5/7/2026 | Dimensional Fund Advisors LP | 639,272 | $16.92M | 0.0% | +1.8% | 5.843% | |
| 4/20/2026 | Ritholtz Wealth Management | 40,352 | $1.07M | 0.0% | +9.4% | 0.369% | |
| 2/19/2026 | Invesco Ltd. | 10,649 | $244K | 0.0% | -24.5% | 0.092% | |
| 2/18/2026 | Empowered Funds LLC | 109,216 | $2.50M | 0.0% | +5.5% | 0.948% | |
| 2/18/2026 | Millennium Management LLC | 60,977 | $1.40M | 0.0% | -52.7% | 0.530% | |
| 2/18/2026 | Bridgeway Capital Management LLC | 188,169 | $4.30M | 0.1% | -22.0% | 1.634% | |
| 2/17/2026 | Punch & Associates Investment Management Inc. | 196,618 | $4.50M | 0.3% | -28.7% | 1.707% | |
| 2/17/2026 | ExodusPoint Capital Management LP | 25,049 | $573K | 0.0% | N/A | 0.217% | |
| 2/17/2026 | RBF Capital LLC | 55,039 | $1.26M | 0.1% | -8.3% | 0.478% | |
| 2/13/2026 | Charles Schwab Investment Management Inc. | 189,057 | $4.32M | 0.0% | +38.6% | 1.641% | |
| 2/13/2026 | Boston Partners | 161,911 | $3.70M | 0.0% | +12.4% | 1.405% | |
| 2/12/2026 | Renaissance Technologies LLC | 524,032 | $11.99M | 0.0% | -5.5% | 4.549% | |
| 2/12/2026 | Dimensional Fund Advisors LP | 628,158 | $14.37M | 0.0% | +1.6% | 5.453% | |
| 2/11/2026 | Empowered Funds LLC | 109,216 | $2.50M | 0.0% | +5.5% | 0.948% | |
| 2/11/2026 | Horizon Kinetics Asset Management LLC | 2,449,487 | $56.02M | 0.8% | -9.0% | 21.263% | |
| 2/11/2026 | LPL Financial LLC | 21,032 | $481K | 0.0% | -5.7% | 0.183% | |
| 2/11/2026 | O Shaughnessy Asset Management LLC | 81,411 | $1.86M | 0.0% | -25.0% | 0.707% | |
| 2/10/2026 | Lido Advisors LLC | 25,909 | $596K | 0.0% | +12.7% | 0.225% | |
| 2/10/2026 | Goldman Sachs Group Inc. | 100,116 | $2.29M | 0.0% | N/A | 0.869% | |
| 2/9/2026 | Blue Owl Capital Holdings LP | 370,530 | $8.47M | 0.6% | +16.7% | 3.216% | |
| 2/9/2026 | Clearstead Advisors LLC | 1,538 | $35K | 0.0% | +191.8% | 0.013% | |
| 2/6/2026 | GSA Capital Partners LLP | 51,113 | $1.17M | 0.1% | +12.5% | 0.444% | |
| 1/23/2026 | Ritholtz Wealth Management | 36,882 | $843K | 0.0% | -12.0% | 0.320% | |
| 11/17/2025 | Punch & Associates Investment Management Inc. | 275,585 | $6.34M | 0.4% | +0.8% | 2.393% | |
| 11/17/2025 | Moors & Cabot Inc. | 14,341 | $330K | 0.0% | -12.7% | 0.125% | |
| 11/17/2025 | Millennium Management LLC | 128,810 | $2.96M | 0.0% | +217.7% | 1.119% | |
| 11/17/2025 | Lido Advisors LLC | 22,993 | $529K | 0.0% | -9.8% | 0.200% | |
| 11/14/2025 | Raymond James Financial Inc. | 52,807 | $1.22M | 0.0% | -8.9% | 0.459% | |
| 11/14/2025 | Two Sigma Investments LP | 21,061 | $484K | 0.0% | -30.9% | 0.183% | |
| 11/14/2025 | Bridgeway Capital Management LLC | 241,169 | $5.55M | 0.1% | -3.6% | 2.094% | |
Buy this stock today (Ad) Marc Chaikin, founder of Chaikin Analytics, is sharing a strategy he calls 'Sell This, Buy That' - a way to move out of overpriced AI stocks before the tech trade breaks down and into lesser-known names with real potential to challenge the Mag 7.
One pick he calls 'an upgrade to Tesla stock' is a little-known company that just inked a partnership with Nvidia, positioning it ahead of Tesla in the autonomous vehicle race. Get the name, ticker, and full Hotlist before markets open |
| 11/13/2025 | Boston Partners | 144,040 | $3.31M | 0.0% | +8.6% | 1.251% | |
| 11/13/2025 | Arrowstreet Capital Limited Partnership | 122,863 | $2.83M | 0.0% | -25.4% | 1.067% | |
| 11/12/2025 | Dimensional Fund Advisors LP | 618,374 | $14.22M | 0.0% | +1.6% | 5.370% | |
| 11/12/2025 | Royce & Associates LP | 38,342 | $882K | 0.0% | -51.1% | 0.333% | |
| 11/7/2025 | CenterBook Partners LP | 40,456 | $930K | 0.0% | N/A | 0.351% | |
| 11/7/2025 | GSA Capital Partners LLP | 45,432 | $1.05M | 0.1% | N/A | 0.395% | |
| 10/28/2025 | Ritholtz Wealth Management | 41,914 | $964K | 0.0% | +29.4% | 0.334% | |
| 10/27/2025 | Quent Capital LLC | 3,417 | $79K | 0.0% | N/A | 0.027% | |
| 8/19/2025 | State of Wyoming | 2,863 | $66K | 0.0% | N/A | 0.023% | |
| 8/15/2025 | Bridgeway Capital Management LLC | 250,252 | $5.78M | 0.1% | -1.5% | 1.994% | |
| 8/14/2025 | Raymond James Financial Inc. | 57,982 | $1.34M | 0.0% | -4.6% | 0.462% | |
| 8/13/2025 | Invesco Ltd. | 17,459 | $403K | 0.0% | -19.2% | 0.139% | |
| 8/13/2025 | Arrowstreet Capital Limited Partnership | 164,696 | $3.80M | 0.0% | -14.0% | 1.312% | |
| 8/12/2025 | Boston Partners | 132,608 | $3.06M | 0.0% | -1.6% | 1.057% | |
| 8/12/2025 | XTX Topco Ltd | 11,053 | $255K | 0.0% | N/A | 0.088% | |
| 8/12/2025 | Horizon Kinetics Asset Management LLC | 2,881,033 | $66.52M | 0.8% | -3.0% | 22.956% | |
| 8/12/2025 | American Century Companies Inc. | 470,826 | $10.87M | 0.0% | +7.4% | 3.752% | |
| 8/7/2025 | Boston Partners | 132,608 | $3.06M | 0.0% | -1.6% | 1.057% | |
| 8/7/2025 | Acadian Asset Management LLC | 152,514 | $3.52M | 0.0% | -40.6% | 1.215% | |
| 8/7/2025 | Connor Clark & Lunn Investment Management Ltd. | 37,029 | $855K | 0.0% | +5.0% | 0.295% | |
| 7/28/2025 | Ritholtz Wealth Management | 32,383 | $748K | 0.0% | N/A | 0.241% | |
| 7/8/2025 | Mad River Investors | 67,938 | $1.57M | 0.7% | -14.5% | 0.505% | |
| 6/27/2025 | Goldman Sachs Group Inc. | 8,858 | $204K | 0.0% | N/A | 0.066% | |
| 5/21/2025 | Acadian Asset Management LLC | 256,697 | $5.90M | 0.0% | -19.7% | 1.908% | |
| 5/16/2025 | Empowered Funds LLC | 106,318 | $2.45M | 0.0% | +5.5% | 0.790% | |
| 5/16/2025 | Goldman Sachs Group Inc. | 8,858 | $204K | 0.0% | N/A | 0.066% | |
| 5/16/2025 | Punch & Associates Investment Management Inc. | 273,470 | $6.29M | 0.4% | -37.0% | 2.033% | |
| 5/16/2025 | Engine Capital Management LP | 1,338,114 | $30.78M | 5.8% | N/A | 9.947% | |
| 5/16/2025 | Bridgeway Capital Management LLC | 253,973 | $5.84M | 0.1% | +34.0% | 1.888% | |
| 5/15/2025 | Clough Capital Partners L P | 31,666 | $728K | 0.1% | N/A | 0.235% | |
| 5/15/2025 | Topline Capital Management LLC | 212,823 | $4.90M | 1.1% | +3.7% | 1.582% | |
| 5/13/2025 | Meros Investment Management LP | 107,053 | $2.46M | 1.4% | -2.5% | 0.796% | |
| 5/13/2025 | American Century Companies Inc. | 438,374 | $10.08M | 0.0% | +10.1% | 3.259% | |
| 5/13/2025 | Boston Partners | 134,703 | $3.10M | 0.0% | -3.4% | 1.001% | |
| 5/12/2025 | Invesco Ltd. | 21,606 | $497K | 0.0% | -12.3% | 0.161% | |
| 5/12/2025 | Connor Clark & Lunn Investment Management Ltd. | 35,270 | $811K | 0.0% | -51.3% | 0.262% | |
| 5/9/2025 | Charles Schwab Investment Management Inc. | 46,500 | $1.07M | 0.0% | N/A | 0.346% | |
| 5/8/2025 | Moors & Cabot Inc. | 16,757 | $385K | 0.0% | -32.7% | 0.125% | |
| 5/7/2025 | TCW Group Inc. | 795,845 | $18.30M | 0.2% | +2.0% | 5.874% | |
| 4/22/2025 | Mad River Investors | 79,497 | $1.83M | 0.8% | -63.3% | 0.587% | |
| 3/24/2025 | Wellington Management Group LLP | 237,423 | $5.39M | 0.0% | -30.6% | 1.739% | |
| 2/20/2025 | Mackenzie Financial Corp | 16,997 | $386K | 0.0% | N/A | 0.123% | |
| 2/17/2025 | Two Sigma Investments LP | 53,026 | $1.21M | 0.0% | -19.3% | 0.385% | |
| 2/17/2025 | Two Sigma Advisers LP | 71,066 | $1.62M | 0.0% | -15.2% | 0.516% | |
| 2/17/2025 | Man Group plc | 71,597 | $1.63M | 0.0% | +108.0% | 0.520% | |
| 2/17/2025 | Meros Investment Management LP | 109,761 | $2.49M | 1.1% | +28.9% | 0.797% | |
| 2/17/2025 | Millennium Management LLC | 80,055 | $1.82M | 0.0% | +18.2% | 0.581% | |
| 2/17/2025 | Lazard Asset Management LLC | 21,492 | $488K | 0.0% | +24.0% | 0.156% | |
| 2/17/2025 | Bridgeway Capital Management LLC | 189,503 | $4.31M | 0.1% | +9.5% | 1.376% | |
| 2/17/2025 | Balyasny Asset Management L.P. | 85,445 | $1.94M | 0.0% | N/A | 0.621% | |
Ticker Revealed: Pre-IPO Access to "Next Elon Musk" Company (Ad) We’ve found The Next Elon Musk… and what we believe to be the next Tesla.
It’s already racked up $26 billion in government contracts.
Peter Thiel just bet $1 Billion on it. 👉 Unlock the ticker now and get it completely free. |
| 2/17/2025 | BNP Paribas Financial Markets | 4,118 | $94K | 0.0% | N/A | 0.030% | |
| 2/14/2025 | Lido Advisors LLC | 25,482 | $579K | 0.0% | N/A | 0.185% | |
| 2/14/2025 | Topline Capital Management LLC | 205,246 | $4.66M | 0.9% | N/A | 1.491% | |
| 2/14/2025 | RBF Capital LLC | 60,039 | $1.36M | 0.1% | -23.9% | 0.436% | |
| 2/14/2025 | Dimensional Fund Advisors LP | 517,457 | $11.76M | 0.0% | +7.4% | 3.758% | |
| 2/13/2025 | Marshall Wace LLP | 60,439 | $1.37M | 0.0% | -14.4% | 0.439% | |
| 2/13/2025 | Sterling Capital Management LLC | 15,362 | $349K | 0.0% | -58.6% | 0.112% | |
| 2/13/2025 | Raymond James Financial Inc. | 63,917 | $1.45M | 0.0% | N/A | 0.464% | |
| 2/13/2025 | Renaissance Technologies LLC | 659,648 | $14.99M | 0.0% | +3.2% | 4.790% | |
| 2/13/2025 | Wells Fargo & Company MN | 1,607 | $37K | 0.0% | -87.7% | 0.012% | |